Time;durP1;ratioP1;P1;durP2;ratioP2;P2;SDS_P1;SDS_P2;PMS_P1;PMS_P2;Temp;Humidity;BMP_temperature;BMP_pressure;BME280_temperature;BME280_humidity;BME280_pressure;Samples;Min_cycle;Max_cycle;Signal;HPM_P1;HPM_P2
2023/08/06 00:00:29;;;;;;;10.82;9.70;;;22.30;99.90;;;;;;5225948;28;20026;-83
2023/08/06 00:03:00;;;;;;;10.48;9.60;;;22.20;99.90;;;;;;5225622;28;20074;-77
2023/08/06 00:05:31;;;;;;;11.60;10.10;;;22.40;99.90;;;;;;5225455;28;20461;-82
2023/08/06 00:08:02;;;;;;;11.60;10.40;;;22.30;99.90;;;;;;5225518;28;20048;-83
2023/08/06 00:10:33;;;;;;;9.98;9.07;;;22.30;99.90;;;;;;5225645;28;20033;-83
2023/08/06 00:13:03;;;;;;;10.50;9.57;;;22.30;99.90;;;;;;5225532;28;20063;-76
2023/08/06 00:15:34;;;;;;;10.90;9.95;;;22.10;99.90;;;;;;5225375;28;20036;-83
2023/08/06 00:18:05;;;;;;;11.02;9.82;;;22.20;99.90;;;;;;5226506;28;20053;-82
2023/08/06 00:20:39;;;;;;;10.93;9.82;;;22.20;99.90;;;;;;5226234;28;20044;-83
2023/08/06 00:23:10;;;;;;;12.20;11.20;;;22.10;99.90;;;;;;5226423;28;20448;-82
2023/08/06 00:25:40;;;;;;;10.85;9.85;;;22.20;99.90;;;;;;5226837;28;20029;-83
2023/08/06 00:28:11;;;;;;;10.88;9.85;;;22.10;99.90;;;;;;5229328;28;20074;-77
2023/08/06 00:30:42;;;;;;;12.20;9.85;;;22.10;99.90;;;;;;5229963;28;20077;-83
2023/08/06 00:33:12;;;;;;;10.35;9.30;;;22.00;99.90;;;;;;5230410;28;20025;-82
2023/08/06 00:35:43;;;;;;;11.40;10.38;;;22.10;99.90;;;;;;5230119;28;20021;-83
2023/08/06 00:38:14;;;;;;;11.52;10.38;;;22.00;99.90;;;;;;5230164;28;20032;-82
2023/08/06 00:40:45;;;;;;;10.50;9.50;;;22.00;99.90;;;;;;5230343;28;20115;-83
2023/08/06 00:43:16;;;;;;;10.88;9.75;;;22.00;99.90;;;;;;5230379;28;20079;-83
2023/08/06 00:45:46;;;;;;;9.95;9.13;;;22.00;99.90;;;;;;5230223;28;20083;-82
2023/08/06 00:48:17;;;;;;;10.63;9.63;;;22.00;99.90;;;;;;5230270;28;20021;-82
2023/08/06 00:50:49;;;;;;;11.32;10.32;;;22.00;99.90;;;;;;5230253;28;20032;-84
2023/08/06 00:53:22;;;;;;;11.50;10.55;;;22.00;99.90;;;;;;5230233;28;20021;-83
2023/08/06 00:55:59;;;;;;;11.50;10.50;;;21.90;99.90;;;;;;5229966;28;20025;-83
2023/08/06 00:58:32;;;;;;;12.50;11.18;;;21.90;99.90;;;;;;5229755;28;20480;-84
2023/08/06 01:01:02;;;;;;;11.32;10.25;;;21.90;99.90;;;;;;5229855;28;20041;-79
2023/08/06 01:03:33;;;;;;;11.23;10.15;;;21.80;99.90;;;;;;5229780;28;20032;-83
2023/08/06 01:06:05;;;;;;;12.10;9.88;;;21.90;99.90;;;;;;5229828;28;20098;-83
2023/08/06 01:08:52;;;;;;;11.70;10.70;;;22.00;99.90;;;;;;5229886;28;20083;-83
2023/08/06 01:11:55;;;;;;;11.10;10.00;;;21.90;99.90;;;;;;5228456;28;20507;-82
2023/08/06 01:14:48;;;;;;;14.27;12.70;;;21.80;99.90;;;;;;5228370;28;20021;-82
2023/08/06 01:17:26;;;;;;;18.50;13.20;;;21.80;99.90;;;;;;5228456;28;20025;-81
2023/08/06 01:20:00;;;;;;;14.27;12.98;;;21.80;99.90;;;;;;5228665;28;20083;-81
2023/08/06 01:22:32;;;;;;;18.48;16.67;;;21.70;99.90;;;;;;5228158;28;20032;-76
2023/08/06 01:25:04;;;;;;;22.67;20.40;;;21.70;99.90;;;;;;5229540;28;20127;-82
2023/08/06 01:27:49;;;;;;;18.92;17.13;;;21.70;99.90;;;;;;5229377;28;20021;-76
2023/08/06 01:30:30;;;;;;;22.00;20.00;;;21.70;99.90;;;;;;5229224;28;20128;-83
2023/08/06 01:33:05;;;;;;;22.75;20.85;;;21.60;99.90;;;;;;5229386;28;20044;-81
2023/08/06 01:35:38;;;;;;;24.27;21.95;;;21.80;99.90;;;;;;5227892;28;20076;-82
2023/08/06 01:38:09;;;;;;;25.00;22.55;;;21.80;99.90;;;;;;5228814;28;20032;-77
2023/08/06 01:40:40;;;;;;;25.15;22.88;;;21.70;99.90;;;;;;5229056;28;20104;-78
2023/08/06 01:43:10;;;;;;;24.10;21.70;;;21.60;99.90;;;;;;5229169;28;20349;-83
2023/08/06 01:45:41;;;;;;;26.38;23.85;;;21.80;99.90;;;;;;5229030;28;20064;-83
2023/08/06 01:48:12;;;;;;;24.02;21.92;;;21.60;99.90;;;;;;5228622;28;20102;-80
2023/08/06 01:50:43;;;;;;;21.65;19.67;;;21.60;99.90;;;;;;5228345;28;20490;-82
2023/08/06 01:53:13;;;;;;;20.50;18.60;;;21.60;99.90;;;;;;5228044;28;20408;-83
2023/08/06 01:55:48;;;;;;;20.65;18.88;;;21.70;99.90;;;;;;5227895;28;20070;-82
2023/08/06 01:58:19;;;;;;;19.50;17.73;;;21.70;99.90;;;;;;5227686;28;20032;-83
2023/08/06 02:00:50;;;;;;;21.50;19.45;;;21.60;99.90;;;;;;5227551;28;20051;-83
2023/08/06 02:03:21;;;;;;;20.20;18.20;;;21.60;99.90;;;;;;5227590;28;20029;-84
2023/08/06 02:05:51;;;;;;;20.50;18.55;;;21.60;99.90;;;;;;5227712;28;20029;-83
2023/08/06 02:08:22;;;;;;;20.52;18.75;;;21.70;99.90;;;;;;5228310;28;20125;-83
2023/08/06 02:10:53;;;;;;;19.80;18.00;;;21.60;99.90;;;;;;5227417;28;20544;-83
2023/08/06 02:13:24;;;;;;;17.80;16.05;;;21.50;99.90;;;;;;5228608;28;20416;-84
2023/08/06 02:15:55;;;;;;;18.10;16.50;;;21.50;99.90;;;;;;5228588;28;20096;-83
2023/08/06 02:18:26;;;;;;;18.92;16.92;;;21.40;99.90;;;;;;5228605;28;20104;-83
2023/08/06 02:20:58;;;;;;;18.73;16.73;;;21.50;99.90;;;;;;5227179;28;20021;-79
2023/08/06 02:23:29;;;;;;;18.02;16.42;;;21.40;99.90;;;;;;5228290;28;20025;-83
2023/08/06 02:26:04;;;;;;;17.95;16.35;;;21.40;99.90;;;;;;5228325;28;20383;-81
2023/08/06 02:28:35;;;;;;;15.98;14.52;;;21.50;99.90;;;;;;5228274;28;20121;-80
2023/08/06 02:31:06;;;;;;;17.30;15.80;;;21.60;99.90;;;;;;5227789;28;20124;-83
2023/08/06 02:33:37;;;;;;;16.70;15.07;;;21.50;99.90;;;;;;5228218;28;20029;-84
2023/08/06 02:36:08;;;;;;;17.20;15.75;;;21.30;99.90;;;;;;5227868;28;20021;-83
2023/08/06 02:38:39;;;;;;;16.70;15.13;;;21.20;99.90;;;;;;5226717;28;20032;-84
2023/08/06 02:41:10;;;;;;;15.38;13.98;;;21.30;99.90;;;;;;5227934;28;20472;-83
2023/08/06 02:43:40;;;;;;;16.73;15.13;;;21.20;99.90;;;;;;5227688;28;20029;-83
2023/08/06 02:46:11;;;;;;;16.80;15.30;;;21.30;99.90;;;;;;5225955;28;20040;-83
2023/08/06 02:48:42;;;;;;;15.35;14.05;;;21.20;99.90;;;;;;5224983;28;20033;-82
2023/08/06 02:51:13;;;;;;;15.95;14.45;;;21.20;99.90;;;;;;5225402;28;20120;-82
2023/08/06 02:53:43;;;;;;;16.10;14.50;;;21.20;99.90;;;;;;5225255;28;20083;-83
2023/08/06 02:56:14;;;;;;;16.73;15.18;;;21.20;99.90;;;;;;5224873;28;20074;-84
2023/08/06 02:58:45;;;;;;;15.65;14.15;;;21.30;99.90;;;;;;5225891;28;20031;-83
2023/08/06 03:01:16;;;;;;;15.07;13.68;;;21.10;99.90;;;;;;5224939;28;20647;-77
2023/08/06 03:03:47;;;;;;;15.25;13.85;;;21.20;99.90;;;;;;5226689;28;20040;-80
2023/08/06 03:06:17;;;;;;;14.50;13.13;;;21.20;99.90;;;;;;5227343;28;20028;-84
2023/08/06 03:08:48;;;;;;;14.95;13.65;;;21.20;99.90;;;;;;5225909;28;20059;-83
2023/08/06 03:11:19;;;;;;;13.63;12.55;;;21.20;99.90;;;;;;5225794;28;20029;-84
2023/08/06 03:13:50;;;;;;;15.18;13.57;;;21.30;99.90;;;;;;5227203;28;20469;-83
2023/08/06 03:16:20;;;;;;;15.25;13.77;;;21.20;99.90;;;;;;5226008;28;20384;-84
2023/08/06 03:18:51;;;;;;;16.48;13.95;;;21.20;99.90;;;;;;5227059;28;20024;-76
2023/08/06 03:21:22;;;;;;;14.50;13.27;;;21.10;99.90;;;;;;5225640;28;20025;-82
2023/08/06 03:23:52;;;;;;;13.50;12.30;;;21.00;99.90;;;;;;5227223;28;20067;-83
2023/08/06 03:26:23;;;;;;;14.40;13.10;;;21.00;99.90;;;;;;5227166;28;20024;-83
2023/08/06 03:28:54;;;;;;;13.07;12.00;;;21.10;99.90;;;;;;5227073;28;20022;-83
2023/08/06 03:31:25;;;;;;;13.90;12.70;;;21.20;99.90;;;;;;5226816;28;20111;-83
2023/08/06 03:33:56;;;;;;;12.88;11.68;;;21.10;99.90;;;;;;5226920;28;20021;-76
2023/08/06 03:36:26;;;;;;;13.77;12.57;;;21.10;99.90;;;;;;5226980;28;20033;-81
2023/08/06 03:38:57;;;;;;;13.23;12.15;;;21.20;99.90;;;;;;5225706;28;20051;-84
2023/08/06 03:41:28;;;;;;;13.50;12.30;;;21.00;99.90;;;;;;5224766;28;20029;-83
2023/08/06 03:44:00;;;;;;;18.73;12.23;;;21.00;99.90;;;;;;5226294;28;20061;-82
2023/08/06 03:46:34;;;;;;;12.75;11.55;;;21.10;99.90;;;;;;5226138;28;20024;-84
2023/08/06 03:49:05;;;;;;;14.02;11.43;;;21.10;99.90;;;;;;5225663;28;20021;-84
2023/08/06 03:51:35;;;;;;;13.35;11.75;;;21.20;99.90;;;;;;5225557;28;20031;-84
2023/08/06 03:54:06;;;;;;;14.60;12.77;;;21.40;99.90;;;;;;5225443;28;20067;-84
2023/08/06 03:56:37;;;;;;;13.30;12.10;;;21.30;99.90;;;;;;5224180;28;20021;-82
2023/08/06 03:59:08;;;;;;;13.23;12.02;;;21.50;99.90;;;;;;5225541;28;20446;-83
2023/08/06 04:01:38;;;;;;;13.15;12.00;;;21.70;99.90;;;;;;5225079;28;20033;-84
2023/08/06 04:04:09;;;;;;;12.40;11.25;;;21.70;99.90;;;;;;5226340;28;20380;-83
2023/08/06 04:06:40;;;;;;;12.38;11.27;;;21.90;99.90;;;;;;5226578;28;20388;-83
2023/08/06 04:09:11;;;;;;;11.50;10.40;;;21.90;99.90;;;;;;5226592;28;20028;-85
2023/08/06 04:11:41;;;;;;;12.20;11.20;;;22.00;99.90;;;;;;5226227;28;20077;-77
2023/08/06 04:14:12;;;;;;;12.38;11.27;;;22.10;99.90;;;;;;5226379;28;20029;-83
2023/08/06 04:16:43;;;;;;;13.85;10.63;;;22.10;99.90;;;;;;5226410;28;20052;-85
2023/08/06 04:19:14;;;;;;;11.18;10.20;;;22.00;99.90;;;;;;5224761;28;20013;-80
2023/08/06 04:21:44;;;;;;;11.90;10.90;;;22.20;99.90;;;;;;5226309;28;20368;-81
2023/08/06 04:24:15;;;;;;;10.45;9.50;;;22.30;99.90;;;;;;5225814;28;20040;-81
2023/08/06 04:26:46;;;;;;;11.05;9.95;;;22.40;99.90;;;;;;5225757;28;20025;-84
2023/08/06 04:29:17;;;;;;;10.45;9.52;;;22.60;99.90;;;;;;5223623;28;20025;-83
2023/08/06 04:31:47;;;;;;;8.98;8.27;;;22.60;99.90;;;;;;5224826;28;20052;-85
2023/08/06 04:34:18;;;;;;;9.07;8.38;;;22.70;99.90;;;;;;5225104;28;20033;-84
2023/08/06 04:36:49;;;;;;;9.82;8.88;;;22.70;99.90;;;;;;5223583;28;20021;-83
2023/08/06 04:39:20;;;;;;;11.25;10.10;;;22.80;99.90;;;;;;5223817;28;20036;-84
2023/08/06 04:41:50;;;;;;;10.30;9.48;;;22.80;99.90;;;;;;5223874;28;20031;-76
2023/08/06 04:44:21;;;;;;;9.50;8.60;;;22.80;99.90;;;;;;5225967;28;20044;-75
2023/08/06 04:46:52;;;;;;;9.60;8.57;;;22.90;99.90;;;;;;5225888;28;20025;-77
2023/08/06 04:49:23;;;;;;;10.15;9.35;;;23.00;99.90;;;;;;5226289;28;20040;-83
2023/08/06 04:51:54;;;;;;;8.77;8.07;;;23.10;99.90;;;;;;5225939;28;20029;-78
2023/08/06 04:54:24;;;;;;;9.70;8.90;;;23.10;99.90;;;;;;5225744;28;20033;-86
2023/08/06 04:56:55;;;;;;;10.07;9.18;;;23.10;99.90;;;;;;5224978;28;20491;-86
2023/08/06 04:59:27;;;;;;;7.80;7.03;;;23.30;99.90;;;;;;5223974;28;20107;-86
2023/08/06 05:01:58;;;;;;;9.82;9.07;;;23.30;99.90;;;;;;5224868;28;20013;-83
2023/08/06 05:04:29;;;;;;;9.07;8.38;;;23.30;99.90;;;;;;5224644;28;20483;-85
2023/08/06 05:07:00;;;;;;;9.82;9.00;;;23.60;99.90;;;;;;5224608;28;20433;-84
2023/08/06 05:09:31;;;;;;;8.32;7.65;;;23.50;99.90;;;;;;5224411;28;20036;-86
2023/08/06 05:12:03;;;;;;;9.63;8.63;;;23.70;99.90;;;;;;5225544;28;20460;-76
2023/08/06 05:14:34;;;;;;;8.82;8.13;;;23.90;99.90;;;;;;5227106;28;20522;-87
2023/08/06 05:17:05;;;;;;;11.27;9.07;;;23.80;99.90;;;;;;5229571;28;20040;-77
2023/08/06 05:19:35;;;;;;;9.25;8.50;;;23.90;99.90;;;;;;5228996;28;20029;-85
2023/08/06 05:22:06;;;;;;;9.23;8.48;;;24.20;99.90;;;;;;5229016;28;20028;-77
2023/08/06 05:24:37;;;;;;;11.88;8.48;;;24.20;99.90;;;;;;5227755;28;20118;-83
2023/08/06 05:27:08;;;;;;;10.38;9.48;;;24.20;99.90;;;;;;5227926;28;20044;-82
2023/08/06 05:29:38;;;;;;;10.35;9.30;;;24.30;99.90;;;;;;5227750;28;20448;-82
2023/08/06 05:32:10;;;;;;;8.88;8.13;;;24.50;99.90;;;;;;5226268;28;20158;-86
2023/08/06 05:34:41;;;;;;;9.82;9.02;;;24.50;99.90;;;;;;5227849;28;20021;-84
2023/08/06 05:37:12;;;;;;;10.52;9.73;;;24.70;99.90;;;;;;5227834;28;20021;-85
2023/08/06 05:39:43;;;;;;;10.48;9.68;;;24.90;99.90;;;;;;5228756;28;20433;-84
2023/08/06 05:42:13;;;;;;;12.52;8.98;;;24.90;99.90;;;;;;5228770;28;20415;-86
2023/08/06 05:44:44;;;;;;;10.13;9.00;;;24.90;99.90;;;;;;5227951;28;20459;-85
2023/08/06 05:47:15;;;;;;;9.82;9.00;;;25.00;99.90;;;;;;5227647;28;20025;-79
2023/08/06 05:49:46;;;;;;;8.88;8.10;;;25.30;99.90;;;;;;5227820;28;20013;-86
2023/08/06 05:52:17;;;;;;;10.13;9.18;;;25.30;99.90;;;;;;5227911;28;20029;-87
2023/08/06 05:54:47;;;;;;;10.15;9.35;;;25.40;99.90;;;;;;5227616;28;20114;-85
2023/08/06 05:57:18;;;;;;;11.10;10.23;;;25.60;99.90;;;;;;5228023;28;20036;-84
2023/08/06 05:59:49;;;;;;;11.43;10.23;;;25.70;99.90;;;;;;5228608;28;20027;-85
2023/08/06 06:02:20;;;;;;;14.38;13.38;;;25.90;99.90;;;;;;5227573;28;20032;-84
2023/08/06 06:04:51;;;;;;;15.93;14.52;;;26.10;99.90;;;;;;5225930;28;20052;-85
2023/08/06 06:07:21;;;;;;;15.43;14.25;;;26.10;99.90;;;;;;5227029;28;20025;-82
2023/08/06 06:09:52;;;;;;;16.42;14.95;;;26.30;99.90;;;;;;5227031;28;20713;-84
2023/08/06 06:12:25;;;;;;;19.05;17.13;;;26.50;99.90;;;;;;5226883;28;20500;-85
2023/08/06 06:14:56;;;;;;;20.17;18.13;;;26.60;99.90;;;;;;5227387;28;20021;-82
2023/08/06 06:17:27;;;;;;;21.85;19.75;;;26.90;99.90;;;;;;5226023;28;20036;-80
2023/08/06 06:19:58;;;;;;;16.27;14.63;;;27.00;99.90;;;;;;5227944;28;20025;-82
2023/08/06 06:22:29;;;;;;;14.40;11.30;;;27.20;99.90;;;;;;5226586;28;20502;-81
2023/08/06 06:25:00;;;;;;;12.00;10.80;;;27.30;99.90;;;;;;5226916;28;20480;-81
2023/08/06 06:27:31;;;;;;;15.23;11.18;;;27.50;99.90;;;;;;5227636;28;20032;-78
2023/08/06 06:31:26;;;;;;;16.33;12.85;;;27.70;99.90;;;;;;5285634;27;20420;-82
2023/08/06 06:33:57;;;;;;;14.68;13.10;;;27.90;99.90;;;;;;5262965;28;20548;-82
2023/08/06 06:36:28;;;;;;;17.58;14.13;;;27.90;99.90;;;;;;5263873;28;20035;-82
2023/08/06 06:38:59;;;;;;;15.80;14.23;;;28.00;99.90;;;;;;5263615;28;20016;-80
2023/08/06 06:41:31;;;;;;;17.92;16.00;;;28.10;99.90;;;;;;5263785;28;20418;-77
2023/08/06 06:44:02;;;;;;;20.02;16.45;;;28.20;99.90;;;;;;5263778;28;20021;-80
2023/08/06 06:46:33;;;;;;;17.10;15.55;;;28.50;99.90;;;;;;5272432;28;20390;-78
2023/08/06 06:49:03;;;;;;;13.20;11.73;;;28.60;99.90;;;;;;5286033;28;20096;-89
2023/08/06 06:51:34;;;;;;;12.13;10.93;;;28.60;99.90;;;;;;5273839;28;20477;-85
2023/08/06 06:54:05;;;;;;;13.23;11.05;;;28.80;99.90;;;;;;5265171;28;20021;-81
2023/08/06 06:56:36;;;;;;;12.73;11.18;;;29.00;99.90;;;;;;5263003;28;20040;-71
2023/08/06 06:59:07;;;;;;;13.90;11.93;;;29.10;99.90;;;;;;5250499;28;20029;-81
2023/08/06 07:01:37;;;;;;;16.65;13.70;;;29.40;99.90;;;;;;5256152;28;20052;-80
2023/08/06 07:06:39;;;;;;;15.32;13.80;;;29.60;99.90;;;;;;5343875;27;20321;-81
2023/08/06 07:09:10;;;;;;;14.68;13.38;;;29.70;99.90;;;;;;5308986;27;20026;-70
2023/08/06 07:11:43;;;;;;;12.80;11.43;;;29.80;99.90;;;;;;5326171;27;20381;-70
2023/08/06 07:14:14;;;;;;;13.57;12.40;;;30.00;99.90;;;;;;5304496;27;20351;-82
2023/08/06 07:16:45;;;;;;;15.88;13.00;;;30.00;99.90;;;;;;5327280;27;20025;-82
2023/08/06 07:19:16;;;;;;;14.27;12.88;;;30.20;99.90;;;;;;5321430;27;20003;-78
2023/08/06 07:21:47;;;;;;;13.23;11.65;;;30.30;99.90;;;;;;5326388;27;20434;-77
2023/08/06 07:24:18;;;;;;;16.05;11.98;;;30.40;99.90;;;;;;5325648;27;20051;-71
2023/08/06 07:26:49;;;;;;;12.25;10.60;;;30.40;99.90;;;;;;5308460;27;20087;-77
2023/08/06 07:29:21;;;;;;;13.43;10.48;;;30.50;99.90;;;;;;5315814;27;20034;-74
2023/08/06 07:31:52;;;;;;;10.15;9.00;;;30.60;99.90;;;;;;5304541;28;20031;-73
2023/08/06 07:34:23;;;;;;;14.63;8.43;;;30.60;99.90;;;;;;5303504;27;20035;-82
2023/08/06 07:36:54;;;;;;;13.48;8.88;;;30.70;99.90;;;;;;5305089;27;20545;-73
2023/08/06 07:39:25;;;;;;;11.10;8.68;;;30.80;99.90;;;;;;5305602;27;20090;-81
2023/08/06 07:41:56;;;;;;;13.25;8.07;;;31.00;99.90;;;;;;5304053;28;20023;-80
2023/08/06 07:44:26;;;;;;;12.82;8.05;;;31.00;99.90;;;;;;5305390;27;20074;-72
2023/08/06 07:46:57;;;;;;;12.60;7.47;;;31.00;99.90;;;;;;5286895;28;20023;-82
2023/08/06 07:49:28;;;;;;;14.45;7.57;;;31.00;99.90;;;;;;5306380;27;20031;-72
2023/08/06 07:51:59;;;;;;;9.50;7.60;;;31.00;99.90;;;;;;5306591;27;20114;-73
2023/08/06 07:54:30;;;;;;;13.35;7.60;;;31.10;99.90;;;;;;5306413;27;20042;-81
2023/08/06 07:57:01;;;;;;;10.05;7.88;;;31.00;99.90;;;;;;5305860;27;20519;-79
2023/08/06 07:59:32;;;;;;;14.90;6.40;;;31.20;99.90;;;;;;5287818;27;20023;-77
2023/08/06 08:02:04;;;;;;;11.73;6.88;;;31.30;99.90;;;;;;5306183;27;20014;-74
2023/08/06 08:04:34;;;;;;;12.32;8.15;;;31.30;99.90;;;;;;5305845;27;20031;-82
2023/08/06 08:07:05;;;;;;;10.30;7.72;;;31.30;99.90;;;;;;5304495;27;20497;-71
2023/08/06 08:09:36;;;;;;;10.15;7.85;;;31.60;99.90;;;;;;5287549;27;20535;-72
2023/08/06 08:12:07;;;;;;;10.75;7.63;;;31.50;99.90;;;;;;5306201;27;20015;-73
2023/08/06 08:14:38;;;;;;;9.48;8.07;;;31.50;99.90;;;;;;5303453;27;20543;-80
2023/08/06 08:17:09;;;;;;;10.65;9.15;;;31.60;99.90;;;;;;5278716;28;20024;-80
2023/08/06 08:19:40;;;;;;;12.70;9.52;;;31.70;99.90;;;;;;5291902;28;20032;-80
2023/08/06 08:22:11;;;;;;;14.98;10.80;;;31.90;99.90;;;;;;5292053;28;20024;-79
2023/08/06 08:24:42;;;;;;;13.77;8.60;;;31.90;99.90;;;;;;5291387;28;20544;-79
2023/08/06 08:27:13;;;;;;;14.38;7.72;;;31.80;99.90;;;;;;5290778;28;20047;-79
2023/08/06 08:29:43;;;;;;;15.25;7.32;;;31.70;99.90;;;;;;5272148;28;20023;-81
2023/08/06 08:32:14;;;;;;;14.52;7.65;;;31.80;99.90;;;;;;5271859;28;20119;-76
2023/08/06 08:34:45;;;;;;;10.07;7.18;;;31.90;99.90;;;;;;5271717;28;20097;-80
2023/08/06 08:37:16;;;;;;;9.30;7.38;;;31.80;99.90;;;;;;5289189;28;20126;-80
2023/08/06 08:39:47;;;;;;;8.48;7.30;;;32.00;99.90;;;;;;5271527;28;20612;-81
2023/08/06 08:42:17;;;;;;;8.00;7.20;;;32.00;99.90;;;;;;5290691;28;20119;-71
2023/08/06 08:44:48;;;;;;;8.20;7.13;;;31.90;99.90;;;;;;5272556;28;20031;-74
2023/08/06 08:47:19;;;;;;;11.18;7.18;;;32.00;99.90;;;;;;5291200;28;20016;-82
2023/08/06 08:49:54;;;;;;;29.65;7.60;;;32.00;99.90;;;;;;5291246;28;20019;-72
2023/08/06 08:52:27;;;;;;;11.18;7.28;;;31.90;99.90;;;;;;5291221;28;20024;-72
2023/08/06 08:54:59;;;;;;;11.65;8.00;;;31.90;99.90;;;;;;5291119;28;20015;-80
2023/08/06 08:57:31;;;;;;;14.23;8.40;;;32.10;99.90;;;;;;5272792;28;20042;-72
2023/08/06 09:00:02;;;;;;;11.73;8.70;;;32.10;99.90;;;;;;5291023;28;20028;-78
2023/08/06 09:02:34;;;;;;;12.07;8.63;;;32.20;99.90;;;;;;5290374;28;20027;-80
2023/08/06 09:05:05;;;;;;;15.27;9.13;;;32.20;99.90;;;;;;5270975;28;20051;-76
2023/08/06 09:07:42;;;;;;;10.25;8.07;;;32.40;99.90;;;;;;5288912;28;20031;-75
2023/08/06 09:10:17;;;;;;;10.02;8.40;;;32.60;99.90;;;;;;5289948;28;20020;-77
2023/08/06 09:12:50;;;;;;;11.65;7.60;;;32.70;99.90;;;;;;5271119;28;20623;-78
2023/08/06 09:15:25;;;;;;;13.32;7.22;;;32.60;99.90;;;;;;5289077;28;20072;-81
2023/08/06 09:17:56;;;;;;;14.00;6.88;;;32.70;99.90;;;;;;5290163;28;20475;-72
2023/08/06 09:20:27;;;;;;;11.95;7.07;;;32.70;99.90;;;;;;5272685;28;20363;-82
2023/08/06 09:22:58;;;;;;;10.68;6.63;;;32.90;99.90;;;;;;5290805;28;20024;-81
2023/08/06 09:25:31;;;;;;;12.05;4.97;;;33.00;99.90;;;;;;5290693;28;20046;-72
2023/08/06 09:28:03;;;;;;;9.15;5.40;;;32.80;98.00;;;;;;5290010;28;20125;-75
2023/08/06 09:30:38;;;;;;;11.40;5.40;;;33.00;98.50;;;;;;5272725;28;20378;-73
2023/08/06 09:33:14;;;;;;;10.07;5.35;;;33.00;99.00;;;;;;5288481;28;20456;-73
2023/08/06 09:35:46;;;;;;;6.20;4.53;;;33.00;98.80;;;;;;5289359;28;20063;-78
2023/08/06 09:38:17;;;;;;;15.25;5.25;;;33.10;97.00;;;;;;5288213;28;20102;-81
2023/08/06 09:40:48;;;;;;;10.32;5.22;;;33.10;96.70;;;;;;5288379;28;20172;-81
2023/08/06 09:43:19;;;;;;;6.75;4.95;;;33.20;98.10;;;;;;5288392;28;20112;-80
2023/08/06 09:45:50;;;;;;;6.70;4.78;;;33.40;98.60;;;;;;5288212;28;20494;-80
2023/08/06 09:48:24;;;;;;;24.48;5.57;;;33.40;99.00;;;;;;5270553;28;20020;-78
2023/08/06 09:50:56;;;;;;;8.70;5.13;;;33.30;98.50;;;;;;5289729;28;20481;-74
2023/08/06 09:53:27;;;;;;;21.42;6.15;;;33.40;99.90;;;;;;5289437;28;20110;-79
2023/08/06 09:55:58;;;;;;;7.88;6.80;;;33.60;98.70;;;;;;5289767;28;20173;-72
2023/08/06 09:58:32;;;;;;;7.30;5.95;;;33.40;99.90;;;;;;5271608;28;20053;-73
2023/08/06 10:01:03;;;;;;;9.82;6.05;;;33.60;99.90;;;;;;5289894;28;20047;-74
2023/08/06 10:03:36;;;;;;;14.80;5.95;;;33.70;99.90;;;;;;5289861;28;20016;-72
2023/08/06 10:06:08;;;;;;;6.47;5.63;;;33.70;99.90;;;;;;5289507;28;20047;-75
2023/08/06 10:08:41;;;;;;;10.95;5.60;;;33.80;99.90;;;;;;5289847;28;20019;-78
2023/08/06 10:11:12;;;;;;;15.02;6.10;;;33.90;99.90;;;;;;5289858;28;20031;-71
2023/08/06 10:13:44;;;;;;;17.60;6.40;;;33.60;99.90;;;;;;5289755;28;20027;-72
2023/08/06 10:16:15;;;;;;;8.13;6.00;;;33.70;99.90;;;;;;5289126;28;20019;-83
2023/08/06 10:18:47;;;;;;;10.60;6.43;;;33.60;99.90;;;;;;5288989;28;20031;-71
2023/08/06 10:21:18;;;;;;;9.60;6.18;;;33.60;99.90;;;;;;5288359;28;20057;-76
2023/08/06 10:23:54;;;;;;;10.05;5.63;;;33.60;99.90;;;;;;5269957;28;20019;-72
2023/08/06 10:26:29;;;;;;;8.55;6.35;;;33.90;99.90;;;;;;5288125;28;20054;-82
2023/08/06 10:29:00;;;;;;;11.82;5.50;;;34.10;99.90;;;;;;5288071;28;20126;-81
2023/08/06 10:31:58;;;;;;;11.90;6.78;;;34.30;99.90;;;;;;5288240;28;20111;-80
2023/08/06 10:34:47;;;;;;;;;;;34.00;99.90;;;;;;5288510;28;20039;-77
2023/08/06 10:37:19;;;;;;;12.07;7.30;;;33.80;99.90;;;;;;5289346;28;19907;-71
2023/08/06 10:39:51;;;;;;;11.55;6.63;;;33.70;99.90;;;;;;5289057;28;20020;-70
2023/08/06 10:42:28;;;;;;;13.15;6.97;;;34.00;99.90;;;;;;5289347;28;20106;-79
2023/08/06 10:45:13;;;;;;;9.45;6.75;;;33.90;99.90;;;;;;5289196;28;20039;-79
2023/08/06 10:47:45;;;;;;;8.45;6.95;;;33.70;99.90;;;;;;5289133;28;20044;-78
2023/08/06 10:50:17;;;;;;;11.43;7.43;;;34.00;99.90;;;;;;5289321;28;20558;-71
2023/08/06 10:52:48;;;;;;;17.90;7.55;;;34.00;99.90;;;;;;5287831;28;20015;-71
2023/08/06 10:55:38;;;;;;;14.30;7.82;;;33.90;99.90;;;;;;5285964;28;20055;-77
2023/08/06 10:58:14;;;;;;;23.30;8.07;;;34.00;99.90;;;;;;5287520;28;20015;-78
2023/08/06 11:00:48;;;;;;;11.40;7.45;;;34.00;99.90;;;;;;5289184;28;20489;-77
2023/08/06 11:03:20;;;;;;;83.03;10.25;;;34.10;99.90;;;;;;5289082;28;20026;-72
2023/08/06 11:05:50;;;;;;;14.95;7.55;;;33.90;99.90;;;;;;5288737;28;20138;-72
2023/08/06 11:08:28;;;;;;;10.77;7.70;;;34.00;99.90;;;;;;5288962;28;20100;-71
2023/08/06 11:11:13;;;;;;;16.58;6.78;;;34.10;99.90;;;;;;5270884;28;20084;-72
2023/08/06 11:13:48;;;;;;;10.77;7.10;;;33.80;99.90;;;;;;5288934;28;20023;-72
2023/08/06 11:16:26;;;;;;;14.52;7.07;;;34.00;99.90;;;;;;5288799;28;20062;-75
2023/08/06 11:18:59;;;;;;;17.65;7.60;;;34.20;99.90;;;;;;5288899;28;20433;-71
2023/08/06 11:21:30;;;;;;;18.85;7.47;;;34.00;99.90;;;;;;5288615;28;20046;-73
2023/08/06 11:24:01;;;;;;;13.00;7.07;;;34.00;99.90;;;;;;5287041;28;20012;-77
2023/08/06 11:26:32;;;;;;;10.80;6.45;;;34.20;99.90;;;;;;5286750;28;20020;-74
2023/08/06 14:00:44;;;;;;;9.10;5.43;;;34.10;75.30;;;;;;5265400;28;21147;-73
2023/08/06 14:03:14;;;;;;;8.93;5.22;;;34.10;77.10;;;;;;5264112;28;20025;-73
2023/08/06 14:05:45;;;;;;;6.70;4.47;;;34.40;76.20;;;;;;5264102;28;20024;-74
2023/08/06 14:08:19;;;;;;;21.80;4.28;;;34.40;74.60;;;;;;5264924;28;20016;-72
2023/08/06 14:10:51;;;;;;;20.65;4.20;;;34.40;74.20;;;;;;5265192;28;20077;-72
2023/08/06 14:13:22;;;;;;;8.05;4.10;;;34.10;72.30;;;;;;5265111;28;20020;-72
2023/08/06 14:15:53;;;;;;;6.70;4.32;;;34.10;71.30;;;;;;5264385;28;20024;-73
2023/08/06 14:18:25;;;;;;;12.77;4.50;;;34.10;69.50;;;;;;5264178;28;20479;-74
2023/08/06 14:20:55;;;;;;;17.73;4.97;;;34.00;68.80;;;;;;5263742;28;20043;-74
2023/08/06 14:23:26;;;;;;;10.38;4.57;;;34.10;68.30;;;;;;5263474;28;20414;-73
2023/08/06 14:25:57;;;;;;;9.68;4.10;;;34.10;67.90;;;;;;5263530;28;20387;-74
2023/08/06 14:28:28;;;;;;;12.00;4.40;;;34.10;69.80;;;;;;5263321;28;20021;-75
2023/08/06 14:30:59;;;;;;;13.30;4.75;;;34.00;68.30;;;;;;5263462;28;20064;-73
2023/08/06 14:33:29;;;;;;;11.30;4.10;;;34.00;68.80;;;;;;5264348;28;20013;-73
2023/08/06 14:36:01;;;;;;;11.80;4.25;;;34.10;68.80;;;;;;5264636;28;20028;-72
2023/08/06 14:38:32;;;;;;;5.45;4.25;;;33.90;67.10;;;;;;5263182;28;20036;-73
2023/08/06 14:41:03;;;;;;;14.60;4.53;;;34.00;67.40;;;;;;5264548;28;20047;-76
2023/08/06 14:43:34;;;;;;;8.45;4.47;;;33.80;66.80;;;;;;5264475;28;20477;-73
2023/08/06 14:46:04;;;;;;;8.30;4.25;;;33.80;67.60;;;;;;5263180;28;20033;-72
2023/08/06 14:48:35;;;;;;;14.02;4.18;;;33.90;67.40;;;;;;5263016;28;20028;-73
2023/08/06 14:51:06;;;;;;;7.45;4.25;;;33.70;67.90;;;;;;5263131;28;20114;-74
2023/08/06 14:53:37;;;;;;;10.63;4.53;;;33.80;67.10;;;;;;5262996;28;20024;-73
2023/08/06 14:56:08;;;;;;;7.03;3.92;;;33.70;66.40;;;;;;5262671;28;20032;-73
2023/08/06 14:58:38;;;;;;;11.60;4.25;;;33.80;68.30;;;;;;5258944;28;20399;-72
2023/08/06 15:01:09;;;;;;;10.02;4.05;;;33.60;67.30;;;;;;5245050;28;20026;-72
2023/08/06 15:03:40;;;;;;;7.43;3.80;;;33.60;68.60;;;;;;5241827;28;20049;-72
2023/08/06 15:06:11;;;;;;;8.40;4.35;;;33.50;68.80;;;;;;5241556;28;20045;-71
2023/08/06 15:08:43;;;;;;;7.60;3.90;;;33.50;68.00;;;;;;5243069;28;20021;-72
2023/08/06 15:11:14;;;;;;;8.80;3.80;;;33.30;68.80;;;;;;5234417;28;20068;-73
2023/08/06 15:13:45;;;;;;;5.07;4.18;;;33.20;68.70;;;;;;5239232;28;20067;-72
2023/08/06 15:16:16;;;;;;;8.27;4.32;;;33.30;68.60;;;;;;5249239;28;20016;-73
2023/08/06 15:18:48;;;;;;;12.35;4.03;;;33.20;68.50;;;;;;5248496;28;20437;-73
2023/08/06 15:21:19;;;;;;;13.88;3.97;;;33.20;69.50;;;;;;5248406;28;20101;-73
2023/08/06 15:23:50;;;;;;;9.45;4.18;;;33.30;71.70;;;;;;5248348;28;20078;-73
2023/08/06 15:26:20;;;;;;;10.43;4.28;;;33.10;69.20;;;;;;5248427;28;20039;-73
2023/08/06 15:28:51;;;;;;;9.98;4.55;;;33.10;69.80;;;;;;5248054;28;20033;-74
2023/08/06 15:31:22;;;;;;;6.10;3.90;;;33.10;70.70;;;;;;5248750;28;20025;-74
2023/08/06 15:33:53;;;;;;;6.63;4.05;;;32.90;69.40;;;;;;5237906;28;20042;-73